Time;durP1;ratioP1;P1;durP2;ratioP2;P2;SDS_P1;SDS_P2;PMS_P1;PMS_P2;Temp;Humidity;BMP_temperature;BMP_pressure;BME280_temperature;BME280_humidity;BME280_pressure;Samples;Min_cycle;Max_cycle;Signal;HPM_P1;HPM_P2
2021/12/29 00:01:32;;;;;;;22.02;8.35;;;;;;;;;;6024575;23;20023;-95
2021/12/29 00:03:58;;;;;;;15.43;8.15;;;;;;;;;;6023997;23;20349;-96
2021/12/29 00:06:25;;;;;;;15.10;8.45;;;;;;;;;;6024638;23;20030;-96
2021/12/29 00:08:56;;;;;;;14.73;7.03;;;;;;;;;;6024866;23;20302;-96
2021/12/29 00:11:28;;;;;;;17.02;7.72;;;;;;;;;;6023942;23;20349;-95
2021/12/29 00:13:54;;;;;;;16.83;8.68;;;;;;;;;;6024651;23;20015;-96
2021/12/29 00:16:20;;;;;;;17.67;8.73;;;;;;;;;;6026809;23;20023;-94
2021/12/29 00:18:49;;;;;;;21.98;10.00;;;;;;;;;;6026197;23;20015;-96
2021/12/29 00:21:18;;;;;;;23.92;9.90;;;;;;;;;;6048593;23;20023;-95
2021/12/29 00:23:49;;;;;;;28.77;11.10;;;;;;;;;;6024178;23;20019;-96
2021/12/29 00:26:15;;;;;;;36.53;10.77;;;;;;;;;;6048803;23;20015;-96
2021/12/29 00:28:41;;;;;;;30.33;11.15;;;;;;;;;;6025445;23;20307;-94
2021/12/29 00:31:08;;;;;;;38.35;12.30;;;;;;;;;;6047466;23;20042;-95
2021/12/29 00:33:36;;;;;;;42.65;12.52;;;;;;;;;;6046904;23;20029;-95
2021/12/29 00:36:05;;;;;;;44.83;12.00;;;;;;;;;;6047782;23;20344;-95
2021/12/29 00:38:36;;;;;;;39.88;13.50;;;;;;;;;;6024564;23;20015;-95
2021/12/29 00:41:02;;;;;;;39.85;12.80;;;;;;;;;;6024960;23;20330;-95
2021/12/29 00:43:31;;;;;;;38.88;14.00;;;;;;;;;;6026086;23;20097;-95
2021/12/29 00:45:57;;;;;;;38.05;13.45;;;;;;;;;;6023989;23;20026;-95
2021/12/29 00:48:31;;;;;;;37.38;13.40;;;;;;;;;;6024979;23;20345;-95
2021/12/29 00:50:57;;;;;;;42.45;14.45;;;;;;;;;;6046996;23;20067;-96
2021/12/29 00:53:26;;;;;;;47.35;15.77;;;;;;;;;;6027759;23;20065;-96
2021/12/29 00:55:52;;;;;;;50.55;16.35;;;;;;;;;;6026578;23;20022;-94
2021/12/29 00:58:21;;;;;;;42.00;14.65;;;;;;;;;;6051058;23;20022;-94
2021/12/29 01:00:47;;;;;;;46.15;15.77;;;;;;;;;;6049389;23;20050;-95
2021/12/29 01:03:14;;;;;;;47.85;16.05;;;;;;;;;;6051442;23;20019;-94
2021/12/29 01:05:40;;;;;;;46.38;15.52;;;;;;;;;;6050607;23;20018;-95
2021/12/29 01:08:07;;;;;;;65.70;17.90;;;;;;;;;;6023969;23;20097;-95
2021/12/29 01:10:34;;;;;;;52.92;16.23;;;;;;;;;;6024983;23;20023;-94
2021/12/29 01:13:02;;;;;;;58.28;17.48;;;;;;;;;;6025482;23;20014;-95
2021/12/29 01:15:36;;;;;;;45.90;16.33;;;;;;;;;;6049588;23;20083;-94
2021/12/29 01:18:03;;;;;;;52.38;16.92;;;;;;;;;;6026357;23;20019;-94
2021/12/29 01:20:30;;;;;;;57.85;17.48;;;;;;;;;;6049012;23;20018;-95
2021/12/29 01:23:01;;;;;;;70.93;21.17;;;;;;;;;;6049577;23;20018;-93
2021/12/29 01:25:30;;;;;;;68.80;18.45;;;;;;;;;;6025951;23;20063;-95
2021/12/29 01:27:58;;;;;;;53.75;17.45;;;;;;;;;;6023526;23;20082;-96
2021/12/29 01:30:24;;;;;;;55.30;18.95;;;;;;;;;;6023142;23;20030;-94
2021/12/29 01:32:52;;;;;;;48.03;17.73;;;;;;;;;;6025292;23;20015;-95
2021/12/29 01:35:21;;;;;;;49.72;18.08;;;;;;;;;;6047239;23;20357;-95
2021/12/29 01:37:47;;;;;;;51.35;19.60;;;;;;;;;;6046384;23;20479;-94
2021/12/29 01:40:18;;;;;;;45.38;17.38;;;;;;;;;;6047063;23;20018;-95
2021/12/29 01:42:45;;;;;;;54.88;17.92;;;;;;;;;;6047923;23;20445;-96
2021/12/29 01:45:11;;;;;;;42.13;17.65;;;;;;;;;;6048846;23;20023;-96
2021/12/29 01:47:41;;;;;;;56.58;19.65;;;;;;;;;;6049080;23;20054;-95
2021/12/29 01:50:10;;;;;;;43.25;18.15;;;;;;;;;;6025444;23;20093;-95
2021/12/29 01:52:42;;;;;;;46.22;19.15;;;;;;;;;;6024742;23;20019;-96
2021/12/29 01:55:13;;;;;;;36.85;15.45;;;;;;;;;;6046425;23;20057;-96
2021/12/29 01:57:47;;;;;;;43.55;15.77;;;;;;;;;;6022263;23;20015;-96
2021/12/29 02:00:47;;;;;;;42.25;14.02;;;;;;;;;;6048846;23;20023;-96
2021/12/29 02:03:38;;;;;;;37.88;12.57;;;;;;;;;;6023251;23;20019;-96
2021/12/29 02:06:12;;;;;;;35.97;14.27;;;;;;;;;;6022369;23;20019;-96
2021/12/29 02:08:46;;;;;;;35.47;14.73;;;;;;;;;;6023554;23;20025;-96
2021/12/29 02:11:31;;;;;;;37.20;12.77;;;;;;;;;;6022452;23;20018;-96
2021/12/29 02:14:13;;;;;;;37.30;14.27;;;;;;;;;;6022391;23;20022;-95
2021/12/29 02:16:40;;;;;;;43.63;14.43;;;;;;;;;;6046073;23;20046;-94
2021/12/29 02:19:12;;;;;;;30.60;12.60;;;;;;;;;;6024019;23;20019;-95
2021/12/29 02:21:39;;;;;;;18.15;7.90;;;;;;;;;;6024178;23;20051;-94
2021/12/29 02:26:36;;;;;;;37.50;10.48;;;;;;;;;;6046022;23;20018;-93
2021/12/29 02:29:03;;;;;;;41.97;12.70;;;;;;;;;;6021672;23;20019;-92
2021/12/29 02:31:30;;;;;;;33.40;11.23;;;;;;;;;;6046140;23;20023;-93
2021/12/29 02:33:57;;;;;;;38.83;11.13;;;;;;;;;;6045623;23;20025;-93
2021/12/29 02:36:23;;;;;;;26.08;10.27;;;;;;;;;;6046012;23;20050;-93
2021/12/29 02:38:54;;;;;;;37.28;11.90;;;;;;;;;;6022108;23;20023;-93
2021/12/29 02:41:23;;;;;;;41.78;12.90;;;;;;;;;;6046198;23;20086;-93
2021/12/29 02:43:57;;;;;;;36.92;12.02;;;;;;;;;;6021660;23;20030;-93
2021/12/29 02:46:23;;;;;;;30.48;10.20;;;;;;;;;;6046384;23;20019;-92
2021/12/29 02:49:02;;;;;;;37.15;11.30;;;;;;;;;;6020847;23;20027;-93
2021/12/29 02:51:28;;;;;;;26.92;10.52;;;;;;;;;;6021178;23;20019;-92
2021/12/29 02:53:55;;;;;;;34.03;10.98;;;;;;;;;;6022938;23;20083;-94
2021/12/29 02:56:22;;;;;;;30.58;10.95;;;;;;;;;;6023295;23;20055;-94
2021/12/29 02:58:48;;;;;;;30.83;11.20;;;;;;;;;;6023007;23;20038;-93
2021/12/29 03:01:15;;;;;;;33.97;12.98;;;;;;;;;;6047268;23;20018;-93
2021/12/29 03:03:41;;;;;;;34.85;12.60;;;;;;;;;;6047314;23;20019;-93
2021/12/29 03:06:08;;;;;;;26.95;11.48;;;;;;;;;;6024425;23;20018;-93
2021/12/29 03:08:35;;;;;;;34.00;13.30;;;;;;;;;;6047673;23;20019;-92
2021/12/29 03:11:02;;;;;;;29.58;12.13;;;;;;;;;;6046209;23;20022;-93
2021/12/29 03:13:30;;;;;;;36.13;14.82;;;;;;;;;;6047088;23;20067;-92
2021/12/29 03:15:56;;;;;;;33.30;14.25;;;;;;;;;;6047150;23;20019;-93
2021/12/29 03:18:22;;;;;;;37.00;12.43;;;;;;;;;;6047605;23;20405;-94
2021/12/29 03:20:49;;;;;;;33.83;12.15;;;;;;;;;;6047402;23;20022;-93
2021/12/29 03:23:15;;;;;;;38.30;14.48;;;;;;;;;;6024289;23;20014;-94
2021/12/29 03:25:42;;;;;;;29.85;13.18;;;;;;;;;;6024087;23;20054;-95
2021/12/29 03:28:08;;;;;;;32.47;14.13;;;;;;;;;;6047990;23;20338;-92
2021/12/29 03:30:43;;;;;;;31.27;13.18;;;;;;;;;;6047295;23;20027;-94
2021/12/29 03:33:09;;;;;;;30.00;12.95;;;;;;;;;;6047639;23;20051;-92
2021/12/29 03:35:35;;;;;;;35.55;15.65;;;;;;;;;;6046707;23;20023;-93
2021/12/29 03:38:03;;;;;;;36.53;14.75;;;;;;;;;;6047254;23;20026;-92
2021/12/29 03:40:35;;;;;;;43.95;13.93;;;;;;;;;;6046933;23;20461;-93
2021/12/29 03:43:02;;;;;;;37.03;15.38;;;;;;;;;;6021476;23;20067;-92
2021/12/29 03:45:28;;;;;;;34.72;15.18;;;;;;;;;;6022113;23;20019;-92
2021/12/29 03:47:54;;;;;;;37.67;13.95;;;;;;;;;;6045426;23;20066;-93
2021/12/29 03:50:22;;;;;;;30.77;13.65;;;;;;;;;;6045746;23;20019;-94
2021/12/29 03:52:48;;;;;;;28.05;14.23;;;;;;;;;;6045019;23;20026;-93
2021/12/29 03:55:14;;;;;;;27.35;13.30;;;;;;;;;;6021663;23;20394;-92
2021/12/29 03:57:41;;;;;;;34.35;14.20;;;;;;;;;;6022618;23;20097;-93
2021/12/29 04:00:09;;;;;;;34.83;14.38;;;;;;;;;;6021754;23;20019;-92
2021/12/29 04:02:35;;;;;;;31.00;13.30;;;;;;;;;;6021359;23;20406;-92
2021/12/29 04:05:02;;;;;;;23.20;10.85;;;;;;;;;;6046908;23;20066;-92
2021/12/29 04:07:28;;;;;;;23.83;12.00;;;;;;;;;;6046661;23;20023;-93
2021/12/29 04:09:54;;;;;;;26.92;12.75;;;;;;;;;;6046972;23;20465;-93
2021/12/29 04:12:20;;;;;;;29.05;14.40;;;;;;;;;;6022519;23;20019;-94
2021/12/29 04:14:46;;;;;;;39.22;15.63;;;;;;;;;;6023117;23;20050;-93
2021/12/29 04:17:13;;;;;;;35.70;15.40;;;;;;;;;;6022093;23;20069;-94
2021/12/29 04:22:24;;;;;;;29.45;13.40;;;;;;;;;;6045279;23;20018;-93
2021/12/29 04:24:50;;;;;;;23.98;12.40;;;;;;;;;;6021966;23;20082;-93
2021/12/29 04:27:17;;;;;;;24.65;13.18;;;;;;;;;;6022868;23;20019;-93
2021/12/29 04:29:43;;;;;;;23.38;11.30;;;;;;;;;;6023289;23;20102;-94
2021/12/29 04:32:09;;;;;;;27.30;11.10;;;;;;;;;;6045774;23;20589;-94
2021/12/29 04:34:35;;;;;;;31.15;13.23;;;;;;;;;;6022086;23;20025;-93
2021/12/29 04:37:01;;;;;;;33.28;13.18;;;;;;;;;;6023722;23;20019;-94
2021/12/29 04:39:27;;;;;;;25.65;12.52;;;;;;;;;;6023531;23;20029;-95
2021/12/29 04:41:53;;;;;;;26.33;11.68;;;;;;;;;;6022886;23;20015;-94
2021/12/29 04:44:20;;;;;;;25.35;10.90;;;;;;;;;;6023221;23;20022;-94
2021/12/29 04:46:47;;;;;;;26.25;11.82;;;;;;;;;;6048698;23;20046;-93
2021/12/29 04:49:14;;;;;;;24.15;11.48;;;;;;;;;;6023476;23;20030;-95
2021/12/29 04:51:55;;;;;;;27.25;12.38;;;;;;;;;;6023958;23;20018;-94
2021/12/29 04:54:21;;;;;;;33.42;14.18;;;;;;;;;;6046792;23;20029;-93
2021/12/29 04:56:49;;;;;;;35.58;12.27;;;;;;;;;;6023330;23;20023;-93
2021/12/29 04:59:16;;;;;;;25.80;12.50;;;;;;;;;;6024059;23;20029;-94
2021/12/29 05:01:44;;;;;;;36.22;13.40;;;;;;;;;;6046742;23;20026;-94
2021/12/29 05:04:10;;;;;;;32.30;12.90;;;;;;;;;;6023064;23;20026;-93
2021/12/29 05:09:21;;;;;;;34.97;12.98;;;;;;;;;;6046223;23;20030;-94
2021/12/29 05:11:47;;;;;;;28.50;13.98;;;;;;;;;;6022798;23;20023;-93
2021/12/29 05:14:13;;;;;;;23.15;12.57;;;;;;;;;;6023201;23;20022;-93
2021/12/29 05:16:40;;;;;;;32.30;11.98;;;;;;;;;;6023250;23;20078;-94
2021/12/29 05:19:06;;;;;;;31.20;13.55;;;;;;;;;;6046440;23;20019;-94
2021/12/29 05:21:32;;;;;;;34.00;13.98;;;;;;;;;;6046756;23;20101;-95
2021/12/29 05:23:58;;;;;;;36.97;13.77;;;;;;;;;;6048026;23;20018;-95
2021/12/29 05:26:24;;;;;;;30.27;13.25;;;;;;;;;;6022799;23;20022;-94
2021/12/29 05:28:50;;;;;;;23.73;12.05;;;;;;;;;;6022250;23;20034;-94
2021/12/29 05:31:16;;;;;;;29.27;12.85;;;;;;;;;;6046884;23;20334;-94
2021/12/29 05:33:42;;;;;;;30.02;13.07;;;;;;;;;;6046280;23;20082;-94
2021/12/29 05:36:08;;;;;;;23.27;13.20;;;;;;;;;;6046833;23;20118;-93
2021/12/29 05:38:35;;;;;;;27.15;12.05;;;;;;;;;;6046093;23;20106;-94
2021/12/29 05:41:01;;;;;;;26.13;12.52;;;;;;;;;;6022699;23;20015;-93
2021/12/29 05:43:27;;;;;;;30.10;13.65;;;;;;;;;;6023556;23;20034;-94
2021/12/29 05:45:53;;;;;;;22.60;12.90;;;;;;;;;;6022245;23;20018;-93
2021/12/29 05:48:19;;;;;;;34.45;14.18;;;;;;;;;;6022351;23;20015;-94
2021/12/29 05:50:45;;;;;;;32.80;13.90;;;;;;;;;;6023678;23;20018;-95
2021/12/29 05:53:11;;;;;;;28.33;12.38;;;;;;;;;;6023939;23;20019;-95
2021/12/29 05:55:41;;;;;;;37.65;14.95;;;;;;;;;;6046023;23;20023;-94
2021/12/29 05:58:10;;;;;;;39.83;15.90;;;;;;;;;;6046429;23;20117;-95
2021/12/29 06:00:38;;;;;;;30.20;14.65;;;;;;;;;;6023261;23;20461;-95
2021/12/29 06:03:04;;;;;;;33.50;15.07;;;;;;;;;;6023241;23;20022;-94
2021/12/29 06:05:33;;;;;;;34.35;14.27;;;;;;;;;;6023771;23;20496;-94
2021/12/29 06:07:59;;;;;;;39.95;14.48;;;;;;;;;;6022734;23;20019;-94
2021/12/29 06:10:25;;;;;;;34.75;13.90;;;;;;;;;;6046017;23;20022;-94
2021/12/29 06:12:52;;;;;;;44.78;16.60;;;;;;;;;;6023662;23;20102;-94
2021/12/29 06:15:18;;;;;;;35.35;15.45;;;;;;;;;;6023424;23;20023;-94
2021/12/29 06:17:46;;;;;;;39.83;15.10;;;;;;;;;;6022823;23;20472;-95
2021/12/29 06:20:13;;;;;;;36.55;14.52;;;;;;;;;;6022827;23;20019;-94
2021/12/29 06:22:42;;;;;;;64.97;16.77;;;;;;;;;;6022869;23;20090;-94
2021/12/29 06:25:10;;;;;;;39.50;14.98;;;;;;;;;;6022735;23;20023;-95
2021/12/29 06:27:36;;;;;;;49.50;16.92;;;;;;;;;;6022519;23;20015;-95
2021/12/29 06:30:03;;;;;;;45.97;15.82;;;;;;;;;;6045669;23;20029;-95
2021/12/29 06:32:41;;;;;;;58.47;18.80;;;;;;;;;;6054045;23;20050;-93
2021/12/29 06:35:34;;;;;;;45.13;16.63;;;;;;;;;;5984820;24;20028;-95
2021/12/29 06:38:00;;;;;;;45.15;16.17;;;;;;;;;;5961613;24;20020;-94
2021/12/29 06:40:26;;;;;;;53.25;17.17;;;;;;;;;;5960451;24;20127;-96
2021/12/29 06:42:57;;;;;;;49.90;17.60;;;;;;;;;;5960961;24;20458;-96
2021/12/29 06:45:26;;;;;;;45.85;18.83;;;;;;;;;;5961379;24;20399;-96
2021/12/29 06:47:53;;;;;;;64.30;18.50;;;;;;;;;;5961407;24;20027;-95
2021/12/29 06:50:19;;;;;;;56.20;18.08;;;;;;;;;;5960982;24;20030;-96
2021/12/29 06:52:48;;;;;;;64.20;16.92;;;;;;;;;;5962477;24;20020;-93
2021/12/29 06:55:16;;;;;;;58.90;18.30;;;;;;;;;;5962552;24;20028;-94
2021/12/29 06:57:43;;;;;;;63.85;18.25;;;;;;;;;;5960469;24;20087;-95
2021/12/29 07:00:12;;;;;;;66.50;18.00;;;;;;;;;;5960643;24;20017;-94
2021/12/29 07:02:38;;;;;;;61.30;19.15;;;;;;;;;;5959934;24;20020;-95
2021/12/29 07:05:08;;;;;;;49.55;18.15;;;;;;;;;;5959601;24;20169;-94
2021/12/29 07:07:34;;;;;;;51.00;17.13;;;;;;;;;;5960184;24;20035;-94
2021/12/29 07:10:03;;;;;;;46.25;16.13;;;;;;;;;;5959701;24;20107;-94
2021/12/29 07:12:29;;;;;;;51.47;16.58;;;;;;;;;;6009253;23;20019;-94
2021/12/29 07:14:55;;;;;;;60.75;17.33;;;;;;;;;;6050202;23;20022;-94
2021/12/29 07:17:29;;;;;;;52.60;15.77;;;;;;;;;;6052083;23;20407;-94
2021/12/29 07:19:55;;;;;;;47.22;15.70;;;;;;;;;;6050827;23;20474;-95
2021/12/29 07:22:23;;;;;;;50.25;16.08;;;;;;;;;;6072917;23;20014;-95
2021/12/29 07:24:49;;;;;;;47.55;15.38;;;;;;;;;;6078996;23;20080;-95
2021/12/29 07:27:15;;;;;;;44.08;14.15;;;;;;;;;;6079088;23;20348;-94
2021/12/29 07:29:59;;;;;;;35.65;15.02;;;;;;;;;;6103605;23;20093;-95
2021/12/29 07:32:27;;;;;;;36.05;14.02;;;;;;;;;;6078561;23;20073;-94
2021/12/29 07:34:53;;;;;;;38.63;13.27;;;;;;;;;;6079744;23;20033;-94
2021/12/29 07:37:22;;;;;;;31.67;13.00;;;;;;;;;;6079697;23;20475;-95
2021/12/29 07:39:48;;;;;;;46.22;13.40;;;;;;;;;;6080369;23;20324;-94
2021/12/29 07:42:16;;;;;;;35.35;15.45;;;;;;;;;;6079478;23;20444;-94
2021/12/29 07:44:45;;;;;;;44.65;15.38;;;;;;;;;;6079275;23;20029;-94
2021/12/29 07:47:13;;;;;;;35.67;13.27;;;;;;;;;;6078859;23;20067;-94
2021/12/29 07:49:39;;;;;;;44.10;14.73;;;;;;;;;;6079747;23;20018;-94
2021/12/29 07:52:05;;;;;;;38.45;13.57;;;;;;;;;;6079660;23;20014;-94
2021/12/29 07:54:31;;;;;;;40.30;13.88;;;;;;;;;;6079597;23;20022;-94
2021/12/29 07:56:57;;;;;;;34.50;13.75;;;;;;;;;;6079032;23;20014;-95
2021/12/29 07:59:24;;;;;;;31.77;13.32;;;;;;;;;;6078577;23;20341;-95
2021/12/29 08:01:50;;;;;;;41.03;13.27;;;;;;;;;;6078546;23;20022;-94
2021/12/29 08:04:19;;;;;;;40.05;15.10;;;;;;;;;;6079527;23;20063;-95
2021/12/29 08:06:45;;;;;;;42.60;15.00;;;;;;;;;;6080067;23;20077;-95
2021/12/29 08:09:12;;;;;;;42.92;16.10;;;;;;;;;;6079122;23;20049;-94
2021/12/29 08:11:39;;;;;;;47.28;15.80;;;;;;;;;;6080969;23;20049;-93
2021/12/29 08:14:06;;;;;;;47.10;15.48;;;;;;;;;;6081780;23;20070;-95
2021/12/29 08:16:32;;;;;;;40.85;14.30;;;;;;;;;;6081893;23;20025;-94
2021/12/29 08:18:58;;;;;;;53.53;17.17;;;;;;;;;;6082164;23;20089;-94
2021/12/29 08:21:24;;;;;;;51.65;17.15;;;;;;;;;;6080726;23;20028;-94
2021/12/29 08:23:50;;;;;;;59.50;17.50;;;;;;;;;;6080978;23;20073;-94
2021/12/29 08:26:17;;;;;;;56.97;18.55;;;;;;;;;;6081061;23;20021;-94
2021/12/29 08:28:43;;;;;;;67.65;19.30;;;;;;;;;;6080656;23;20014;-94
2021/12/29 08:31:09;;;;;;;84.85;21.27;;;;;;;;;;6080851;23;20039;-95
2021/12/29 08:33:38;;;;;;;95.55;23.13;;;;;;;;;;6080354;23;20045;-95
2021/12/29 08:36:04;;;;;;;85.60;20.63;;;;;;;;;;6080520;23;20053;-95
2021/12/29 08:38:30;;;;;;;87.38;20.10;;;;;;;;;;6081568;23;20452;-95
2021/12/29 08:40:57;;;;;;;113.32;21.35;;;;;;;;;;6082346;23;20025;-95
2021/12/29 08:43:23;;;;;;;115.93;24.17;;;;;;;;;;6080913;23;20018;-94
2021/12/29 08:45:49;;;;;;;64.35;16.60;;;;;;;;;;6080485;23;20018;-94
2021/12/29 08:48:15;;;;;;;77.72;16.48;;;;;;;;;;6080602;23;20025;-94
2021/12/29 08:50:42;;;;;;;116.32;21.95;;;;;;;;;;6080396;23;20022;-96
2021/12/29 08:53:09;;;;;;;72.63;18.52;;;;;;;;;;6056990;23;20018;-94
2021/12/29 08:55:36;;;;;;;103.25;19.45;;;;;;;;;;6080196;23;20072;-95
2021/12/29 08:58:06;;;;;;;94.13;18.50;;;;;;;;;;6080930;23;20149;-96
2021/12/29 09:00:32;;;;;;;135.82;21.13;;;;;;;;;;6080631;23;20018;-96
2021/12/29 09:02:58;;;;;;;123.10;22.35;;;;;;;;;;6080999;23;20400;-95
2021/12/29 09:05:27;;;;;;;77.38;16.77;;;;;;;;;;6082447;23;20018;-95
2021/12/29 09:07:54;;;;;;;70.13;15.23;;;;;;;;;;6080646;23;20026;-95
2021/12/29 09:10:20;;;;;;;65.93;15.88;;;;;;;;;;6081082;23;20048;-93
2021/12/29 09:12:51;;;;;;;59.40;14.70;;;;;;;;;;6081870;23;20084;-95
2021/12/29 09:15:26;;;;;;;57.80;13.00;;;;;;;;;;6082532;23;20388;-96
2021/12/29 09:17:53;;;;;;;67.45;14.48;;;;;;;;;;6081017;23;20080;-95
2021/12/29 09:20:27;;;;;;;78.65;14.60;;;;;;;;;;6080591;23;20460;-94
2021/12/29 09:22:54;;;;;;;56.60;13.80;;;;;;;;;;6080304;23;20036;-94
2021/12/29 09:25:21;;;;;;;44.53;12.07;;;;;;;;;;6080320;23;20141;-95
2021/12/29 09:27:49;;;;;;;41.85;12.88;;;;;;;;;;6080632;23;20021;-94
2021/12/29 09:30:26;;;;;;;63.88;13.73;;;;;;;;;;6081935;23;20018;-94
2021/12/29 09:32:53;;;;;;;49.58;12.70;;;;;;;;;;6080310;23;20070;-95
2021/12/29 09:35:22;;;;;;;43.80;13.48;;;;;;;;;;6080219;23;20029;-95
2021/12/29 09:37:52;;;;;;;51.20;13.15;;;;;;;;;;6080778;23;20060;-95
2021/12/29 09:40:28;;;;;;;44.90;14.00;;;;;;;;;;6081326;23;20014;-95
2021/12/29 09:43:00;;;;;;;51.25;13.35;;;;;;;;;;6080734;23;20050;-93
2021/12/29 09:45:27;;;;;;;55.40;13.75;;;;;;;;;;6081083;23;20050;-95
2021/12/29 09:47:57;;;;;;;38.50;12.10;;;;;;;;;;6079858;23;20022;-95
2021/12/29 09:50:26;;;;;;;34.75;12.50;;;;;;;;;;6080311;23;20022;-95
2021/12/29 09:52:55;;;;;;;30.42;11.43;;;;;;;;;;6080180;23;20066;-95
2021/12/29 09:55:22;;;;;;;31.98;11.18;;;;;;;;;;6079224;23;20344;-96
2021/12/29 09:57:49;;;;;;;28.58;12.30;;;;;;;;;;6081116;23;20014;-95
2021/12/29 10:00:24;;;;;;;28.40;11.05;;;;;;;;;;6080129;23;20093;-96
2021/12/29 10:02:50;;;;;;;31.88;11.85;;;;;;;;;;6080276;23;20033;-95
2021/12/29 10:05:16;;;;;;;28.98;10.75;;;;;;;;;;6079876;23;20018;-96
2021/12/29 10:07:43;;;;;;;24.23;10.15;;;;;;;;;;6084815;23;20444;-96
2021/12/29 10:10:19;;;;;;;23.83;9.60;;;;;;;;;;6081888;23;20025;-95
2021/12/29 10:12:53;;;;;;;22.63;9.27;;;;;;;;;;6083228;23;20025;-96
2021/12/29 10:15:20;;;;;;;16.48;9.50;;;;;;;;;;6082230;23;20017;-95
2021/12/29 10:17:46;;;;;;;21.23;9.25;;;;;;;;;;6080534;23;20053;-95
2021/12/29 10:20:24;;;;;;;18.30;8.80;;;;;;;;;;6081411;23;20018;-95
2021/12/29 10:22:58;;;;;;;24.25;9.00;;;;;;;;;;6079719;23;20057;-96
2021/12/29 10:25:24;;;;;;;;;;;8.00;99.90;;;;;;6080334;23;20022;-95
2021/12/29 10:27:56;;;;;;;14.77;7.65;;;;;;;;;;6079719;23;19925;-95
2021/12/29 10:30:27;;;;;;;20.40;9.02;;;;;;;;;;6080363;23;20024;-95
2021/12/29 10:33:00;;;;;;;19.05;9.00;;;;;;;;;;6079064;23;20478;-96
2021/12/29 10:35:33;;;;;;;24.77;8.73;;;;;;;;;;6080648;23;20033;-94
2021/12/29 10:38:16;;;;;;;22.65;9.52;;;;;;;;;;6082550;23;20018;-95
2021/12/29 10:40:46;;;;;;;23.30;7.40;;;;;;;;;;6081430;23;20021;-96
2021/12/29 10:43:16;;;;;;;18.95;8.93;;;;;;;;;;6080127;23;20022;-96
2021/12/29 10:45:50;;;;;;;23.88;8.48;;;;;;;;;;6080415;23;20031;-96
2021/12/29 10:48:20;;;;;;;19.20;7.65;;;;;;;;;;6080591;23;20352;-96
2021/12/29 10:50:57;;;;;;;10.38;7.25;;;;;;;;;;6079748;23;20523;-96
2021/12/29 10:53:26;;;;;;;16.38;7.30;;;;;;;;;;6079521;23;20029;-96
2021/12/29 10:56:03;;;;;;;17.23;7.80;;;;;;;;;;6079903;23;20104;-95
2021/12/29 10:58:34;;;;;;;24.38;7.43;;;;;;;;;;6080621;23;20404;-96
2021/12/29 11:01:10;;;;;;;17.40;7.68;;;;;;;;;;6080691;23;20021;-96
2021/12/29 11:03:43;;;;;;;22.90;8.77;;;;;;;;;;6079957;23;20060;-96
2021/12/29 11:06:15;;;;;;;16.23;7.03;;;;;;;;;;6080955;23;20115;-96
2021/12/29 11:08:49;;;;;;;23.02;7.65;;;;;;;;;;6045856;23;20022;-96
2021/12/29 11:11:19;;;;;;;21.25;7.05;;;;;;;;;;6046305;23;20018;-96
2021/12/29 11:14:00;;;;;;;19.70;8.35;;;;;;;;;;6020408;23;20102;-96
2021/12/29 11:16:28;;;;;;;22.92;7.93;;;;;;;;;;6045469;23;20030;-95
2021/12/29 11:22:17;;;;;;;19.80;7.15;;;;;;;;;;5961048;23;20092;-96
2021/12/29 11:24:53;;;;;;;13.80;7.20;;;;;;;;;;5936650;24;20063;-96
2021/12/29 11:27:34;;;;;;;17.77;7.13;;;;;;;;;;5938660;24;20028;-95
2021/12/29 11:30:13;;;;;;;22.30;7.22;;;;;;;;;;5932551;24;20029;-96
2021/12/29 11:32:48;;;;;;;22.85;6.97;;;;;;;;;;5916299;24;20031;-96
2021/12/29 11:35:15;;;;;;;15.07;7.00;;;;;;;;;;5937546;24;20080;-95
2021/12/29 11:38:07;;;;;;;14.07;7.60;;;;;;;;;;5937851;24;20528;-96
2021/12/29 11:40:35;;;;;;;22.42;6.68;;;;;;;;;;5883694;24;20028;-96
2021/12/29 11:43:32;;;;;;;18.77;7.18;;;;;;;;;;6021648;23;20078;-96
2021/12/29 11:46:23;;;;;;;22.30;7.03;;;;;;;;;;6082366;23;20017;-96
2021/12/29 11:52:25;;;;;;;19.90;7.60;;;;;;;;;;6046372;23;20030;-96
2021/12/29 11:55:18;;;;;;;18.13;8.00;;;;;;;;;;6025192;23;20015;-95
2021/12/29 11:58:18;;;;;;;;;;;;;;;;;;;;;
2021/12/29 12:04:37;;;;;;;24.88;7.30;;;;;;;;;;5934380;24;20027;-96
2021/12/29 12:07:36;;;;;;;;;;;;;;;;;;;;;
2021/12/29 12:14:03;;;;;;;;;;;;;;;;;;;;;
2021/12/29 12:17:01;;;;;;;22.73;7.35;;;;;;;;;;5721901;24;20487;-96
2021/12/29 12:22:46;;;;;;;23.55;8.13;;;;;;;;;;5747684;24;20050;-96
2021/12/29 12:39:18;;;;;;;18.75;6.43;;;;;;;;;;5559226;22;15075073;-95
2021/12/29 12:42:05;;;;;;;19.50;6.60;;;;;;;;;;6171762;23;20045;-95
2021/12/29 12:44:41;;;;;;;33.97;6.80;;;;;;;;;;6171286;23;20096;-95
2021/12/29 12:47:17;;;;;;;16.38;5.90;;;;;;;;;;6171796;23;20070;-96
2021/12/29 12:49:48;;;;;;;15.45;5.18;;;;;;;;;;6169843;23;20017;-95
2021/12/29 12:52:25;;;;;;;20.40;5.20;;;;;;;;;;6170792;23;20447;-96
2021/12/29 12:55:02;;;;;;;16.05;6.13;;;;;;;;;;6171762;23;20017;-96
2021/12/29 12:57:36;;;;;;;10.63;5.15;;;;;;;;;;6171681;23;20009;-96
2021/12/29 13:00:24;;;;;;;13.82;4.95;;;;;;;;;;6170839;23;20059;-96
2021/12/29 13:02:55;;;;;;;9.68;6.15;;;;;;;;;;6170073;23;20095;-95
2021/12/29 13:05:41;;;;;;;18.00;4.85;;;;;;;;;;6172956;23;20516;-94
2021/12/29 13:08:13;;;;;;;8.32;5.35;;;;;;;;;;6169941;23;20028;-95
2021/12/29 13:10:54;;;;;;;18.05;6.95;;;;;;;;;;6171540;23;20067;-95
2021/12/29 13:13:23;;;;;;;15.50;5.90;;;;;;;;;;6170710;23;20017;-96
2021/12/29 13:15:59;;;;;;;13.68;5.20;;;;;;;;;;6170018;23;20016;-94
2021/12/29 13:18:50;;;;;;;15.95;5.47;;;;;;;;;;6171461;23;20068;-93
2021/12/29 13:21:25;;;;;;;9.75;5.57;;;;;;;;;;6171516;23;20013;-95
2021/12/29 13:23:58;;;;;;;14.85;4.88;;;;;;;;;;6171792;23;20021;-96
2021/12/29 13:26:28;;;;;;;8.32;4.82;;;;;;;;;;6172242;23;20032;-95
2021/12/29 13:29:17;;;;;;;11.77;5.13;;;;;;;;;;6171867;23;20056;-95
2021/12/29 13:31:46;;;;;;;13.30;5.43;;;;;;;;;;6173855;23;20097;-95
2021/12/29 13:34:17;;;;;;;19.92;6.00;;;;;;;;;;6173815;23;20024;-96
2021/12/29 13:36:45;;;;;;;10.82;6.13;;;;;;;;;;6171590;23;20021;-96
2021/12/29 13:39:21;;;;;;;22.17;6.63;;;;;;;;;;6165768;23;20013;-95
2021/12/29 13:41:48;;;;;;;13.65;6.88;;;;;;;;;;6164803;23;20049;-95
2021/12/29 13:44:16;;;;;;;14.07;6.57;;;;;;;;;;6165051;23;20091;-94
2021/12/29 13:46:44;;;;;;;9.60;5.38;;;;;;;;;;6165996;23;20024;-96
2021/12/29 13:49:18;;;;;;;14.10;5.70;;;;;;;;;;6165462;23;20020;-96
2021/12/29 13:51:47;;;;;;;10.73;5.68;;;;;;;;;;6165669;23;20017;-95
2021/12/29 13:54:17;;;;;;;9.15;6.18;;;;;;;;;;6164492;23;20017;-96
2021/12/29 13:56:46;;;;;;;14.73;6.38;;;;;;;;;;6164958;23;20017;-96
2021/12/29 13:59:12;;;;;;;11.30;6.68;;;;;;;;;;6163116;23;20029;-95
2021/12/29 14:01:40;;;;;;;13.38;6.70;;;;;;;;;;6164316;23;20023;-95
2021/12/29 14:04:06;;;;;;;15.68;6.35;;;;;;;;;;6163924;23;20020;-95
2021/12/29 14:06:36;;;;;;;7.82;5.50;;;;;;;;;;6165002;23;20021;-95
2021/12/29 14:09:03;;;;;;;10.90;6.13;;;;;;;;;;6163081;23;20100;-94
2021/12/29 14:11:30;;;;;;;18.27;6.55;;;;;;;;;;6164213;23;20021;-95
2021/12/29 14:14:06;;;;;;;9.35;5.97;;;;;;;;;;6163606;23;20048;-95
2021/12/29 14:16:33;;;;;;;10.60;6.07;;;;;;;;;;6164287;23;20017;-96
2021/12/29 14:19:01;;;;;;;10.25;6.30;;;;;;;;;;6163003;23;20032;-95
2021/12/29 14:21:27;;;;;;;13.95;6.32;;;;;;;;;;6164396;23;20097;-95
2021/12/29 14:23:59;;;;;;;13.88;6.32;;;;;;;;;;6162832;23;20020;-94
2021/12/29 14:26:26;;;;;;;15.00;6.53;;;;;;;;;;6162562;23;20021;-94
2021/12/29 14:28:56;;;;;;;20.67;6.68;;;;;;;;;;6163054;23;20063;-95
2021/12/29 14:31:25;;;;;;;12.52;6.80;;;;;;;;;;6162960;23;20013;-95
2021/12/29 14:33:52;;;;;;;19.80;6.68;;;;;;;;;;6164068;23;20079;-95
2021/12/29 14:36:30;;;;;;;15.23;6.40;;;;;;;;;;6163339;23;20118;-95
2021/12/29 14:39:04;;;;;;;12.27;6.28;;;;;;;;;;6162985;23;20032;-96
2021/12/29 14:41:33;;;;;;;15.35;6.70;;;;;;;;;;6163421;23;20071;-95
2021/12/29 14:44:02;;;;;;;12.50;6.97;;;;;;;;;;6164343;23;20328;-95
2021/12/29 14:46:28;;;;;;;15.10;8.38;;;;;;;;;;6162786;23;20028;-95
2021/12/29 14:48:55;;;;;;;25.17;9.90;;;;;;;;;;6162794;23;20021;-95
2021/12/29 14:51:22;;;;;;;27.52;11.30;;;;;;;;;;6163359;23;20017;-94
2021/12/29 14:53:48;;;;;;;14.63;7.85;;;;;;;;;;6163064;23;20021;-96
2021/12/29 14:56:15;;;;;;;21.35;7.80;;;;;;;;;;6161898;23;20048;-96
2021/12/29 14:58:42;;;;;;;18.02;7.07;;;;;;;;;;6163662;23;20021;-96
2021/12/29 15:01:11;;;;;;;19.70;8.27;;;;;;;;;;6163284;23;20091;-95
2021/12/29 15:03:38;;;;;;;16.15;8.52;;;;;;;;;;6164042;23;20017;-96
2021/12/29 15:06:04;;;;;;;19.13;7.50;;;;;;;;;;6162281;23;20013;-96
2021/12/29 15:08:34;;;;;;;24.65;8.52;;;;;;;;;;6162553;23;20063;-96
2021/12/29 15:11:00;;;;;;;17.60;8.43;;;;;;;;;;6163028;23;20021;-96
2021/12/29 15:13:28;;;;;;;20.45;9.77;;;;;;;;;;6162806;23;20039;-96
2021/12/29 15:15:58;;;;;;;19.10;9.02;;;;;;;;;;6161752;23;20024;-96
2021/12/29 15:18:25;;;;;;;20.52;9.40;;;;;;;;;;6162334;23;20049;-96